createdAt,value
2019-04-01T00:01:10.118Z,99.90
2019-04-01T00:03:37.879Z,99.90
2019-04-01T00:06:05.856Z,99.90
2019-04-01T00:08:33.725Z,99.90
2019-04-01T00:11:01.594Z,99.90
2019-04-01T00:13:29.483Z,99.90
2019-04-01T00:15:57.330Z,99.90
2019-04-01T00:18:25.220Z,99.90
2019-04-01T00:20:53.070Z,99.90
2019-04-01T00:23:21.342Z,99.90
2019-04-01T00:25:49.205Z,99.90
2019-04-01T00:28:17.097Z,99.90
2019-04-01T00:30:44.946Z,99.90
2019-04-01T00:33:12.831Z,99.90
2019-04-01T00:35:40.678Z,99.90
2019-04-01T00:38:08.570Z,99.90
2019-04-01T00:40:36.369Z,99.90
2019-04-01T00:43:29.526Z,99.90
2019-04-01T00:45:57.814Z,99.90
2019-04-01T00:48:25.642Z,99.90
2019-04-01T00:50:53.478Z,99.90
2019-04-01T00:53:21.362Z,99.90
2019-04-01T00:55:49.209Z,99.90
2019-04-01T00:58:17.108Z,99.90
2019-04-01T01:00:45.026Z,99.90
2019-04-01T01:03:12.810Z,99.90
2019-04-01T01:05:40.681Z,99.90
2019-04-01T01:08:08.569Z,99.90
2019-04-01T01:10:36.418Z,99.90
2019-04-01T01:13:04.317Z,99.90
2019-04-01T01:15:32.445Z,99.90
2019-04-01T01:18:01.277Z,99.90
2019-04-01T01:20:29.120Z,99.90
2019-04-01T01:22:57.001Z,99.90
2019-04-01T01:25:24.849Z,99.90
2019-04-01T01:27:52.738Z,99.90
2019-04-01T01:30:20.591Z,99.90
2019-04-01T01:32:48.479Z,99.90
2019-04-01T01:35:16.407Z,99.90
2019-04-01T01:37:44.330Z,99.90
2019-04-01T01:40:12.357Z,99.90
2019-04-01T01:42:40.270Z,99.90
2019-04-01T01:45:08.097Z,99.90
2019-04-01T01:47:35.964Z,99.90
2019-04-01T01:50:04.218Z,99.90
2019-04-01T01:52:31.983Z,99.90
2019-04-01T01:54:59.806Z,99.90
2019-04-01T01:57:27.647Z,99.90
2019-04-01T01:59:55.723Z,99.90
2019-04-01T02:02:23.583Z,99.90
2019-04-01T02:04:51.361Z,99.90
2019-04-01T02:07:19.299Z,99.90
2019-04-01T02:09:47.102Z,99.90
2019-04-01T02:12:14.946Z,99.90
2019-04-01T02:14:42.838Z,99.90
2019-04-01T02:17:10.762Z,99.90
2019-04-01T02:19:38.570Z,99.90
2019-04-01T02:22:06.414Z,99.90
2019-04-01T02:24:34.315Z,99.90
2019-04-01T02:27:02.156Z,99.90
2019-04-01T02:29:30.030Z,99.90
2019-04-01T02:31:57.899Z,99.90
2019-04-01T02:34:25.774Z,99.90
2019-04-01T02:36:53.620Z,99.90
2019-04-01T02:39:21.508Z,99.90
2019-04-01T02:41:49.373Z,99.90
2019-04-01T02:44:17.243Z,99.90
2019-04-01T02:46:45.088Z,99.90
2019-04-01T02:49:12.971Z,99.90
2019-04-01T02:51:40.824Z,99.90
2019-04-01T02:54:08.722Z,99.90
2019-04-01T02:56:36.640Z,99.90
2019-04-01T02:59:04.454Z,99.90
2019-04-01T03:01:32.587Z,99.90
2019-04-01T03:04:00.408Z,99.90
2019-04-01T03:06:28.229Z,99.90
2019-04-01T03:08:56.115Z,99.90
2019-04-01T03:11:23.966Z,99.90
2019-04-01T03:13:51.832Z,99.90
2019-04-01T03:16:19.604Z,99.90
2019-04-01T03:18:47.487Z,99.90
2019-04-01T03:21:15.338Z,99.90
2019-04-01T03:23:43.203Z,99.90
2019-04-01T03:26:10.983Z,99.90
2019-04-01T03:28:38.839Z,99.90
2019-04-01T03:31:06.626Z,99.90
2019-04-01T03:33:34.494Z,99.90
2019-04-01T03:36:02.455Z,99.90
2019-04-01T03:38:30.308Z,99.90
2019-04-01T03:40:58.195Z,99.90
2019-04-01T03:43:26.038Z,99.90
2019-04-01T03:45:53.927Z,99.90
2019-04-01T03:48:21.865Z,99.90
2019-04-01T03:50:49.665Z,99.90
2019-04-01T03:53:17.451Z,99.90
2019-04-01T03:55:45.362Z,99.90
2019-04-01T03:58:13.147Z,99.90
2019-04-01T04:00:41.028Z,99.90
2019-04-01T04:03:08.898Z,99.90
2019-04-01T04:05:36.770Z,99.90
2019-04-01T04:08:04.615Z,99.90
2019-04-01T04:10:32.389Z,99.90
2019-04-01T04:13:00.259Z,99.90
2019-04-01T04:15:28.132Z,99.90
2019-04-01T04:17:55.974Z,99.90
2019-04-01T04:20:23.871Z,99.90
2019-04-01T04:22:51.705Z,99.90
2019-04-01T04:25:19.678Z,99.90
2019-04-01T04:27:47.942Z,99.90
2019-04-01T04:30:18.518Z,99.90
2019-04-01T04:32:46.439Z,99.90
2019-04-01T04:35:14.237Z,99.90
2019-04-01T04:37:42.176Z,99.90
2019-04-01T04:40:09.974Z,99.90
2019-04-01T04:42:37.830Z,99.90
2019-04-01T04:45:05.778Z,99.90
2019-04-01T04:47:33.568Z,99.90
2019-04-01T04:50:01.455Z,99.90
2019-04-01T04:52:29.379Z,99.90
2019-04-01T04:54:57.239Z,99.90
2019-04-01T04:57:25.071Z,99.90
2019-04-01T04:59:52.894Z,99.90
2019-04-01T05:02:24.336Z,99.90
2019-04-01T05:04:50.370Z,99.90
2019-04-01T05:07:18.325Z,99.90
2019-04-01T05:09:46.110Z,99.90
2019-04-01T05:12:14.009Z,99.90
2019-04-01T05:14:41.839Z,99.90
2019-04-01T05:17:09.730Z,99.90
2019-04-01T05:19:37.576Z,99.90
2019-04-01T05:22:05.466Z,99.90
2019-04-01T05:24:33.482Z,99.90
2019-04-01T05:27:01.471Z,99.90
2019-04-01T05:29:30.253Z,99.90
2019-04-01T05:31:59.034Z,99.90
2019-04-01T05:34:28.665Z,99.90
2019-04-01T05:36:56.651Z,99.90
2019-04-01T05:39:24.511Z,99.90
2019-04-01T05:41:52.514Z,99.90
2019-04-01T05:44:20.421Z,99.90
2019-04-01T05:46:48.417Z,99.90
2019-04-01T05:49:16.363Z,99.90
2019-04-01T05:51:44.243Z,99.90
2019-04-01T05:54:12.129Z,99.90
2019-04-01T05:56:40.012Z,99.90
2019-04-01T05:59:07.926Z,99.90
2019-04-01T06:01:38.946Z,99.90
2019-04-01T06:04:06.833Z,99.90
2019-04-01T06:06:34.729Z,99.90
2019-04-01T06:09:03.508Z,99.90
2019-04-01T06:11:31.598Z,99.90
2019-04-01T06:13:59.537Z,99.90
2019-04-01T06:16:27.522Z,99.90
2019-04-01T06:18:55.297Z,99.90
2019-04-01T06:21:23.189Z,99.90
2019-04-01T06:23:51.130Z,99.90
2019-04-01T06:26:18.998Z,99.90
2019-04-01T06:28:46.942Z,99.90
2019-04-01T06:31:14.823Z,99.90
2019-04-01T06:33:42.807Z,99.90
2019-04-01T06:36:10.846Z,99.90
2019-04-01T06:38:38.661Z,99.90
2019-04-01T06:41:06.842Z,99.90
2019-04-01T06:43:34.710Z,99.90
2019-04-01T06:46:02.647Z,99.90
2019-04-01T06:48:30.437Z,99.90
2019-04-01T06:50:58.382Z,99.90
2019-04-01T06:53:26.265Z,99.90
2019-04-01T06:55:54.125Z,99.90
2019-04-01T06:58:22.090Z,99.90
2019-04-01T07:00:50.038Z,99.90
2019-04-01T07:03:18.814Z,99.90
2019-04-01T07:05:46.877Z,99.90
2019-04-01T07:08:14.839Z,99.90
2019-04-01T07:10:42.607Z,99.90
2019-04-01T07:13:10.426Z,99.90
2019-04-01T07:15:38.194Z,99.90
2019-04-01T07:18:05.979Z,99.90
2019-04-01T07:20:33.813Z,99.90
2019-04-01T07:23:01.615Z,99.90
2019-04-01T07:25:29.384Z,99.90
2019-04-01T07:27:57.171Z,99.90
2019-04-01T07:30:25.005Z,99.90
2019-04-01T07:32:52.866Z,99.90
2019-04-01T07:35:20.627Z,99.90
2019-04-01T07:37:48.432Z,99.90
2019-04-01T07:40:16.194Z,99.90
2019-04-01T07:42:44.070Z,99.90
2019-04-01T07:45:11.909Z,99.90
2019-04-01T07:47:39.695Z,99.90
2019-04-01T07:50:07.596Z,99.60
2019-04-01T07:52:35.370Z,99.40
2019-04-01T07:55:03.270Z,99.00
2019-04-01T07:57:32.769Z,98.10
2019-04-01T08:00:00.796Z,98.00
2019-04-01T08:02:28.564Z,98.30
2019-04-01T08:04:56.354Z,97.90
2019-04-01T08:07:24.295Z,97.70
2019-04-01T08:09:52.451Z,96.80
2019-04-01T08:12:20.285Z,96.90
2019-04-01T08:14:48.339Z,96.40
2019-04-01T08:17:16.107Z,96.30
2019-04-01T08:19:43.898Z,96.20
2019-04-01T08:22:11.675Z,96.60
2019-04-01T08:24:39.453Z,95.50
2019-04-01T08:27:07.502Z,95.20
2019-04-01T08:29:35.387Z,94.80
2019-04-01T08:32:03.548Z,94.60
2019-04-01T08:34:31.424Z,94.70
2019-04-01T08:36:59.202Z,95.00
2019-04-01T08:39:26.996Z,95.00
2019-04-01T08:41:54.958Z,94.70
2019-04-01T08:44:22.767Z,94.90
2019-04-01T08:46:50.530Z,94.10
2019-04-01T08:49:18.325Z,94.00
2019-04-01T08:51:46.135Z,93.90
2019-04-01T08:54:13.947Z,94.40
2019-04-01T08:56:42.152Z,93.40
2019-04-01T08:59:09.943Z,92.90
2019-04-01T09:01:37.795Z,93.50
2019-04-01T09:04:05.577Z,92.60
2019-04-01T09:06:33.362Z,92.70
2019-04-01T09:09:01.422Z,91.70
2019-04-01T09:11:29.214Z,92.00
2019-04-01T09:13:57.779Z,91.30
2019-04-01T09:16:25.906Z,91.10
2019-04-01T09:18:53.695Z,91.10
2019-04-01T09:21:21.499Z,90.30
2019-04-01T09:23:51.991Z,88.40
2019-04-01T09:26:18.765Z,88.10
2019-04-01T09:28:46.534Z,87.90
2019-04-01T09:31:14.374Z,87.70
2019-04-01T09:33:42.248Z,84.80
2019-04-01T09:36:10.112Z,83.90
2019-04-01T09:38:37.882Z,85.40
2019-04-01T09:41:05.670Z,83.70
2019-04-01T09:43:33.457Z,81.40
2019-04-01T09:46:01.250Z,79.70
2019-04-01T09:48:29.019Z,80.10
2019-04-01T09:50:56.811Z,80.90
2019-04-01T09:53:24.578Z,80.70
2019-04-01T09:55:52.370Z,79.70
2019-04-01T09:58:20.139Z,81.00
2019-04-01T10:00:52.966Z,80.80
2019-04-01T10:03:19.562Z,80.10
2019-04-01T10:05:47.351Z,79.90
2019-04-01T10:08:15.123Z,79.40
2019-04-01T10:10:42.941Z,77.70
2019-04-01T10:13:10.710Z,78.00
2019-04-01T10:15:38.498Z,77.50
2019-04-01T10:18:06.258Z,76.80
2019-04-01T10:20:34.049Z,76.30
2019-04-01T10:23:01.916Z,76.10
2019-04-01T10:25:29.705Z,76.90
2019-04-01T10:27:57.558Z,75.00
2019-04-01T10:30:25.526Z,74.70
2019-04-01T10:32:53.614Z,75.80
2019-04-01T10:35:21.486Z,71.70
2019-04-01T10:37:49.270Z,69.00
2019-04-01T10:40:17.161Z,70.20
2019-04-01T10:42:45.008Z,70.00
2019-04-01T10:45:13.168Z,71.40
2019-04-01T10:47:40.983Z,72.60
2019-04-01T10:50:09.124Z,71.20
2019-04-01T10:52:36.964Z,69.50
2019-04-01T10:55:05.203Z,68.00
2019-04-01T10:57:33.288Z,67.60
2019-04-01T11:00:01.400Z,68.60
2019-04-01T11:02:29.271Z,68.60
2019-04-01T11:04:57.104Z,69.60
2019-04-01T11:07:24.993Z,70.50
2019-04-01T11:09:52.790Z,69.80
2019-04-01T11:12:20.645Z,68.80
2019-04-01T11:14:48.424Z,69.70
2019-04-01T11:17:16.211Z,68.40
2019-04-01T11:19:44.026Z,68.20
2019-04-01T11:22:11.830Z,69.50
2019-04-01T11:24:39.607Z,68.30
2019-04-01T11:27:07.391Z,65.60
2019-04-01T11:29:35.150Z,62.80
2019-04-01T11:32:02.989Z,63.30
2019-04-01T11:34:30.841Z,63.30
2019-04-01T11:36:58.620Z,63.40
2019-04-01T11:39:26.385Z,63.60
2019-04-01T11:41:54.352Z,61.30
2019-04-01T11:44:22.419Z,58.60
2019-04-01T11:46:50.907Z,59.40
2019-04-01T11:49:19.812Z,59.70
2019-04-01T11:51:47.841Z,61.90
2019-04-01T11:54:15.646Z,63.70
2019-04-01T11:56:43.433Z,60.30
2019-04-01T11:59:11.236Z,61.20
2019-04-01T12:01:39.022Z,58.30
2019-04-01T12:04:06.785Z,55.90
2019-04-01T12:06:34.574Z,55.70
2019-04-01T12:09:02.363Z,56.40
2019-04-01T12:11:30.150Z,57.10
2019-04-01T12:13:57.922Z,57.00
2019-04-01T12:16:25.710Z,54.40
2019-04-01T12:18:53.486Z,53.00
2019-04-01T12:21:21.270Z,52.20
2019-04-01T12:23:49.367Z,51.10
2019-04-01T12:26:17.691Z,52.30
2019-04-01T12:28:45.813Z,52.90
2019-04-01T12:31:13.609Z,52.90
2019-04-01T12:33:41.374Z,53.70
2019-04-01T12:36:11.670Z,54.40
2019-04-01T12:38:38.816Z,55.30
2019-04-01T12:41:06.653Z,56.20
2019-04-01T12:43:34.458Z,56.50
2019-04-01T12:46:02.235Z,55.60
2019-04-01T12:48:30.101Z,55.30
2019-04-01T12:50:57.867Z,55.40
2019-04-01T12:53:25.660Z,55.60
2019-04-01T12:55:53.498Z,56.90
2019-04-01T12:58:24.935Z,57.80
2019-04-01T13:00:51.570Z,58.70
2019-04-01T13:03:19.890Z,58.80
2019-04-01T13:05:47.659Z,59.00
2019-04-01T13:08:15.460Z,59.40
2019-04-01T13:10:43.282Z,58.90
2019-04-01T13:13:12.943Z,59.10
2019-04-01T13:15:40.638Z,59.50
2019-04-01T13:18:08.430Z,59.60
2019-04-01T13:20:38.193Z,59.80
2019-04-01T13:23:05.710Z,59.90
2019-04-01T13:25:34.022Z,61.10
2019-04-01T13:28:02.054Z,58.90
2019-04-01T13:30:30.117Z,57.80
2019-04-01T13:32:57.910Z,58.50
2019-04-01T13:35:25.686Z,59.60
2019-04-01T13:37:53.477Z,60.00
2019-04-01T13:40:21.346Z,60.20
2019-04-01T13:42:49.150Z,59.60
2019-04-01T13:45:16.930Z,59.30
2019-04-01T13:47:44.728Z,59.40
2019-04-01T13:50:16.156Z,58.40
2019-04-01T13:52:42.982Z,58.00
2019-04-01T13:55:11.015Z,58.40
2019-04-01T13:57:38.807Z,58.10
2019-04-01T14:00:06.859Z,58.30
2019-04-01T14:02:34.657Z,58.00
2019-04-01T14:05:05.768Z,58.20
2019-04-01T14:07:31.950Z,58.80
2019-04-01T14:09:59.722Z,58.00
2019-04-01T14:12:27.494Z,57.90
2019-04-01T14:14:55.289Z,57.90
2019-04-01T14:17:23.058Z,57.60
2019-04-01T14:19:50.860Z,56.50
2019-04-01T14:22:20.114Z,56.40
2019-04-01T14:24:48.359Z,56.10
2019-04-01T14:27:16.131Z,56.10
2019-04-01T14:29:43.922Z,55.70
2019-04-01T14:32:11.771Z,55.50
2019-04-01T14:34:39.875Z,55.40
2019-04-01T14:37:09.832Z,55.60
2019-04-01T14:39:37.162Z,55.50
2019-04-01T14:42:04.938Z,54.90
2019-04-01T14:44:32.750Z,54.30
2019-04-01T14:47:00.518Z,53.90
2019-04-01T14:49:28.313Z,53.50
2019-04-01T14:51:56.082Z,53.60
2019-04-01T14:54:23.874Z,53.40
2019-04-01T14:56:51.646Z,53.90
2019-04-01T14:59:19.452Z,54.10
2019-04-01T15:01:47.238Z,53.90
2019-04-01T15:04:15.325Z,53.20
2019-04-01T15:06:43.097Z,52.90
2019-04-01T15:09:10.882Z,52.10
2019-04-01T15:11:38.694Z,52.40
2019-04-01T15:14:06.506Z,52.20
2019-04-01T15:16:34.279Z,52.00
2019-04-01T15:19:02.111Z,52.00
2019-04-01T15:21:29.886Z,52.30
2019-04-01T15:23:57.912Z,51.90
2019-04-01T15:26:26.035Z,52.00
2019-04-01T15:28:54.079Z,51.90
2019-04-01T15:31:21.850Z,51.80
2019-04-01T15:33:50.263Z,51.50
2019-04-01T15:36:18.385Z,51.40
2019-04-01T15:38:46.167Z,51.30
2019-04-01T15:41:14.077Z,50.90
2019-04-01T15:43:41.914Z,50.00
2019-04-01T15:46:09.702Z,50.30
2019-04-01T15:48:37.527Z,50.20
2019-04-01T15:51:05.318Z,50.10
2019-04-01T15:53:34.741Z,49.60
2019-04-01T15:56:03.006Z,48.30
2019-04-01T15:58:30.773Z,46.80
2019-04-01T16:00:58.562Z,45.50
2019-04-01T16:03:26.338Z,43.90
2019-04-01T16:05:54.137Z,42.20
2019-04-01T16:08:22.307Z,41.50
2019-04-01T16:10:50.665Z,40.60
2019-04-01T16:13:18.462Z,40.10
2019-04-01T16:15:46.254Z,39.40
2019-04-01T16:18:14.026Z,39.40
2019-04-01T16:20:41.814Z,37.40
2019-04-01T16:23:09.586Z,37.60
2019-04-01T16:25:37.802Z,37.10
2019-04-01T16:28:05.843Z,36.20
2019-04-01T16:30:33.667Z,36.10
2019-04-01T16:33:01.479Z,35.50
2019-04-01T16:35:29.311Z,35.20
2019-04-01T16:37:59.404Z,34.70
2019-04-01T16:40:26.690Z,34.90
2019-04-01T16:42:55.754Z,34.40
2019-04-01T16:45:23.841Z,33.80
2019-04-01T16:47:51.980Z,33.40
2019-04-01T16:50:19.862Z,33.40
2019-04-01T16:52:47.721Z,33.10
2019-04-01T16:55:18.253Z,33.30
2019-04-01T16:57:45.511Z,33.60
2019-04-01T17:00:15.098Z,33.80
2019-04-01T17:05:10.742Z,35.50
2019-04-01T17:07:38.658Z,36.90
2019-04-01T17:10:06.527Z,37.90
2019-04-01T17:12:34.384Z,38.10
2019-04-01T17:15:03.634Z,37.80
2019-04-01T17:17:31.638Z,38.20
2019-04-01T17:19:59.522Z,38.80
2019-04-01T17:22:27.385Z,39.60
2019-04-01T17:24:55.214Z,40.60
2019-04-01T17:27:23.083Z,41.20
2019-04-01T17:29:50.871Z,41.90
2019-04-01T17:32:18.658Z,42.60
2019-04-01T17:34:46.599Z,43.50
2019-04-01T17:37:14.486Z,43.80
2019-04-01T17:39:42.350Z,44.30
2019-04-01T17:42:10.138Z,44.70
2019-04-01T17:44:37.970Z,45.60
2019-04-01T17:47:06.308Z,46.80
2019-04-01T17:49:34.523Z,47.10
2019-04-01T17:52:04.358Z,47.40
2019-04-01T17:54:31.822Z,48.10
2019-04-01T17:56:59.682Z,48.60
2019-04-01T17:59:28.479Z,49.00
2019-04-01T18:01:57.161Z,49.50
2019-04-01T18:04:25.112Z,50.10
2019-04-01T18:06:53.259Z,50.30
2019-04-01T18:09:21.056Z,50.60
2019-04-01T18:11:48.838Z,51.30
2019-04-01T18:14:16.671Z,51.70
2019-04-01T18:16:44.562Z,52.40
2019-04-01T18:19:12.406Z,52.80
2019-04-01T18:21:40.355Z,53.50
2019-04-01T18:24:08.152Z,53.80
2019-04-01T18:26:36.026Z,54.40
2019-04-01T18:29:05.604Z,54.70
2019-04-01T18:31:33.702Z,55.10
2019-04-01T18:34:01.575Z,55.70
2019-04-01T18:36:29.457Z,56.40
2019-04-01T18:38:57.241Z,56.90
2019-04-01T18:41:25.038Z,57.00
2019-04-01T18:43:52.907Z,57.30
2019-04-01T18:46:21.174Z,57.60
2019-04-01T18:48:50.154Z,57.70
2019-04-01T18:51:20.335Z,58.00
2019-04-01T18:53:47.675Z,58.10
2019-04-01T18:56:15.727Z,58.50
2019-04-01T18:58:43.607Z,59.00
2019-04-01T19:01:11.479Z,59.10
2019-04-01T19:03:42.723Z,59.40
2019-04-01T19:06:08.983Z,59.80
2019-04-01T19:08:36.841Z,59.80
2019-04-01T19:11:05.103Z,60.20
2019-04-01T19:13:33.104Z,60.60
2019-04-01T19:16:02.611Z,60.80
2019-04-01T19:18:30.458Z,60.20
2019-04-01T19:21:04.379Z,60.40
2019-04-01T19:23:27.937Z,60.70
2019-04-01T19:25:55.782Z,60.20
2019-04-01T19:28:23.713Z,61.00
2019-04-01T19:30:51.853Z,61.50
2019-04-01T19:33:19.752Z,61.90
2019-04-01T19:35:47.558Z,62.20
2019-04-01T19:38:15.378Z,61.30
2019-04-01T19:40:43.199Z,62.00
2019-04-01T19:43:11.083Z,62.10
2019-04-01T19:45:40.010Z,62.80
2019-04-01T19:48:08.034Z,63.00
2019-04-01T19:50:36.155Z,63.40
2019-04-01T19:53:04.177Z,64.00
2019-04-01T19:55:32.035Z,64.20
2019-04-01T19:57:59.954Z,65.30
2019-04-01T20:00:29.585Z,65.00
2019-04-01T20:02:57.411Z,64.80
2019-04-01T20:05:25.246Z,65.40
2019-04-01T20:07:53.126Z,66.60
2019-04-01T20:10:21.076Z,65.90
2019-04-01T20:12:50.851Z,66.70
2019-04-01T20:15:18.644Z,66.70
2019-04-01T20:17:46.794Z,67.10
2019-04-01T20:20:14.989Z,67.50
2019-04-01T20:22:42.903Z,68.10
2019-04-01T20:25:11.032Z,69.00
2019-04-01T20:27:38.918Z,69.40
2019-04-01T20:30:07.186Z,70.40
2019-04-01T20:32:34.959Z,70.90
2019-04-01T20:35:02.853Z,71.10
2019-04-01T20:37:30.749Z,71.40
2019-04-01T20:40:00.401Z,72.10
2019-04-01T20:42:28.275Z,72.10
2019-04-01T20:44:56.339Z,72.90
2019-04-01T20:47:24.209Z,73.10
2019-04-01T20:49:52.105Z,73.70
2019-04-01T20:52:19.963Z,74.30
2019-04-01T20:54:47.857Z,75.50
2019-04-01T20:57:17.179Z,75.30
2019-04-01T20:59:45.234Z,75.70
2019-04-01T21:02:13.057Z,76.20
2019-04-01T21:04:40.985Z,77.10
2019-04-01T21:07:09.986Z,77.80
2019-04-01T21:09:38.014Z,78.40
2019-04-01T21:12:05.855Z,79.00
2019-04-01T21:14:34.147Z,80.30
2019-04-01T21:17:02.005Z,80.20
2019-04-01T21:19:29.794Z,81.30
2019-04-01T21:21:57.719Z,81.90
2019-04-01T21:24:25.527Z,82.70
2019-04-01T21:26:53.367Z,82.90
2019-04-01T21:29:22.834Z,84.30
2019-04-01T21:31:50.834Z,83.90
2019-04-01T21:34:18.737Z,84.20
2019-04-01T21:36:46.592Z,85.50
2019-04-01T21:39:14.745Z,86.50
2019-04-01T21:41:42.549Z,87.30
2019-04-01T21:49:05.335Z,88.90
2019-04-01T21:51:33.499Z,90.40
2019-04-01T21:54:01.370Z,90.60
2019-04-01T21:56:29.219Z,90.80
2019-04-01T21:58:57.106Z,91.30
2019-04-01T22:01:25.135Z,91.80
2019-04-01T22:03:55.333Z,92.40
2019-04-01T22:06:22.564Z,93.00
2019-04-01T22:08:50.683Z,93.00
2019-04-01T22:11:18.486Z,93.30
2019-04-01T22:13:46.254Z,93.50
2019-04-01T22:16:14.127Z,93.90
2019-04-01T22:18:42.852Z,93.70
2019-04-01T22:21:11.208Z,93.60
2019-04-01T22:23:39.332Z,93.60
2019-04-01T22:26:07.112Z,93.80
2019-04-01T22:28:35.059Z,93.80
2019-04-01T22:31:02.859Z,93.60
2019-04-01T22:33:30.708Z,93.70
2019-04-01T22:35:58.981Z,93.90
2019-04-01T22:38:26.873Z,93.80
2019-04-01T22:40:54.768Z,93.80
2019-04-01T22:43:22.666Z,94.00
2019-04-01T22:45:50.599Z,93.60
2019-04-01T22:48:18.426Z,93.70
2019-04-01T22:50:46.202Z,94.00
2019-04-01T22:53:14.046Z,93.70
2019-04-01T22:55:41.945Z,94.30
2019-04-01T22:58:09.786Z,93.80
2019-04-01T23:00:37.680Z,94.10
2019-04-01T23:03:05.527Z,93.90
2019-04-01T23:05:33.422Z,94.10
2019-04-01T23:08:02.194Z,94.00
2019-04-01T23:10:30.274Z,94.10
2019-04-01T23:12:58.122Z,94.00
2019-04-01T23:15:26.014Z,94.20
2019-04-01T23:17:54.022Z,94.10
2019-04-01T23:20:21.846Z,94.10
2019-04-01T23:22:49.691Z,94.20
2019-04-01T23:25:17.474Z,94.30
2019-04-01T23:27:45.335Z,94.50
2019-04-01T23:30:13.390Z,94.80
2019-04-01T23:32:41.953Z,94.20
2019-04-01T23:35:10.267Z,94.40
2019-04-01T23:37:39.274Z,94.40
2019-04-01T23:40:07.346Z,94.30
2019-04-01T23:42:37.707Z,94.50
2019-04-01T23:45:05.025Z,94.30
2019-04-01T23:47:32.898Z,94.50
2019-04-01T23:50:00.749Z,94.20
2019-04-01T23:52:28.539Z,94.60
2019-04-01T23:54:56.386Z,94.40
2019-04-01T23:57:25.118Z,94.40
2019-04-01T23:59:53.126Z,94.70
